createdAt,value
2019-04-26T00:01:11.802Z,1.45
2019-04-26T00:03:46.286Z,1.98
2019-04-26T00:09:23.828Z,1.40
2019-04-26T00:12:14.514Z,1.40
2019-04-26T00:14:48.818Z,1.40
2019-04-26T00:17:23.301Z,1.70
2019-04-26T00:19:56.420Z,1.12
2019-04-26T00:22:29.317Z,1.30
2019-04-26T00:25:01.812Z,1.55
2019-04-26T00:27:36.022Z,1.10
2019-04-26T00:30:10.687Z,1.60
2019-04-26T00:32:44.460Z,1.65
2019-04-26T00:35:17.739Z,1.50
2019-04-26T00:37:50.378Z,1.45
2019-04-26T00:40:23.071Z,1.77
2019-04-26T00:42:57.659Z,1.50
2019-04-26T00:45:35.292Z,1.50
2019-04-26T00:48:08.978Z,1.57
2019-04-26T00:50:41.923Z,1.20
2019-04-26T00:53:17.621Z,1.30
2019-04-26T00:55:51.736Z,1.30
2019-04-26T00:58:25.541Z,1.30
2019-04-26T01:03:29.698Z,1.50
2019-04-26T01:06:03.898Z,1.55
2019-04-26T01:08:36.496Z,1.50
2019-04-26T01:11:47.819Z,1.60
2019-04-26T01:14:20.395Z,1.47
2019-04-26T01:19:26.611Z,1.60
2019-04-26T01:24:37.766Z,1.52
2019-04-26T01:27:12.283Z,1.52
2019-04-26T01:29:47.392Z,1.60
2019-04-26T01:32:22.080Z,1.47
2019-04-26T01:34:57.297Z,1.50
2019-04-26T01:37:31.985Z,1.42
2019-04-26T01:40:11.642Z,1.62
2019-04-26T01:42:56.304Z,1.65
2019-04-26T01:45:32.112Z,1.45
2019-04-26T01:48:13.853Z,1.66
2019-04-26T01:50:46.342Z,1.72
2019-04-26T01:53:21.030Z,1.70
2019-04-26T01:55:53.837Z,1.45
2019-04-26T01:58:27.293Z,1.70
2019-04-26T02:01:04.775Z,1.75
2019-04-26T02:03:38.046Z,1.70
2019-04-26T02:06:10.609Z,1.40
2019-04-26T02:08:43.295Z,1.47
2019-04-26T02:11:15.645Z,1.30
2019-04-26T02:13:48.872Z,1.75
2019-04-26T02:16:21.375Z,2.02
2019-04-26T02:18:53.509Z,1.70
2019-04-26T02:21:30.249Z,1.80
2019-04-26T02:24:05.533Z,1.67
2019-04-26T02:26:45.374Z,1.80
2019-04-26T02:29:28.588Z,1.67
2019-04-26T02:32:07.285Z,1.75
2019-04-26T02:34:41.049Z,1.83
2019-04-26T02:37:16.621Z,1.95
2019-04-26T02:39:49.298Z,1.80
2019-04-26T02:42:39.306Z,1.72
2019-04-26T02:45:34.765Z,1.87
2019-04-26T02:48:22.383Z,2.10
2019-04-26T02:51:01.842Z,2.17
2019-04-26T02:53:46.536Z,2.33
2019-04-26T02:56:45.375Z,2.22
2019-04-26T03:02:16.552Z,1.88
2019-04-26T03:07:53.504Z,2.22
2019-04-26T03:10:32.700Z,2.00
2019-04-26T03:13:12.593Z,2.00
2019-04-26T03:15:55.476Z,2.40
2019-04-26T03:18:43.046Z,2.17
2019-04-26T03:21:39.507Z,2.10
2019-04-26T03:24:42.448Z,2.55
2019-04-26T03:27:43.484Z,2.30
2019-04-26T03:30:51.770Z,2.37
2019-04-26T03:34:10.930Z,2.27
2019-04-26T03:37:40.454Z,2.30
2019-04-26T03:40:51.594Z,2.30
2019-04-26T03:43:55.605Z,2.77
2019-04-26T03:46:53.686Z,2.40
2019-04-26T03:50:05.531Z,3.23
2019-04-26T03:53:19.405Z,2.60
2019-04-26T03:56:24.292Z,4.12
2019-04-26T03:59:12.317Z,2.52
2019-04-26T04:01:53.555Z,3.12
2019-04-26T04:04:38.878Z,4.47
2019-04-26T04:07:18.261Z,2.40
2019-04-26T04:10:00.503Z,2.90
2019-04-26T04:12:46.313Z,2.50
2019-04-26T04:15:52.319Z,3.87
2019-04-26T04:18:32.339Z,5.67
2019-04-26T04:22:00.295Z,3.80
2019-04-26T04:24:57.295Z,3.33
2019-04-26T04:27:45.778Z,2.70
2019-04-26T04:30:27.372Z,2.27
2019-04-26T04:35:57.518Z,3.20
2019-04-26T04:39:11.338Z,2.72
2019-04-26T04:41:50.825Z,2.40
2019-04-26T04:45:04.307Z,2.70
2019-04-26T04:48:34.800Z,3.06
2019-04-26T04:51:40.874Z,2.40
2019-04-26T04:54:41.531Z,2.50
2019-04-26T04:58:06.046Z,4.47
2019-04-26T05:04:10.663Z,2.75
2019-04-26T05:07:35.645Z,2.85
2019-04-26T05:13:37.846Z,3.10
2019-04-26T05:16:46.489Z,3.33
2019-04-26T05:20:00.501Z,2.70
2019-04-26T05:23:32.329Z,2.40
2019-04-26T05:26:33.344Z,3.05
2019-04-26T05:29:49.934Z,2.96
2019-04-26T05:33:04.850Z,2.25
2019-04-26T05:36:23.451Z,2.60
2019-04-26T05:39:09.558Z,2.42
2019-04-26T05:42:30.666Z,2.36
2019-04-26T05:45:56.696Z,2.20
2019-04-26T05:49:12.114Z,2.80
2019-04-26T05:52:53.058Z,2.20
2019-04-26T05:56:03.733Z,2.40
2019-04-26T05:59:22.290Z,2.30
2019-04-26T06:02:47.605Z,2.50
2019-04-26T06:06:07.688Z,3.80
2019-04-26T06:09:26.561Z,2.02
2019-04-26T06:12:39.284Z,2.12
2019-04-26T06:15:52.865Z,2.90
2019-04-26T06:18:59.785Z,1.80
2019-04-26T06:22:10.050Z,1.30
2019-04-26T06:25:26.435Z,1.00
2019-04-26T06:28:11.602Z,1.10
2019-04-26T06:31:11.414Z,0.90
2019-04-26T06:34:02.975Z,2.37
2019-04-26T06:36:43.325Z,4.75
2019-04-26T06:39:34.657Z,6.05
2019-04-26T06:42:36.088Z,1.45
2019-04-26T06:45:20.713Z,1.37
2019-04-26T06:48:07.442Z,1.50
2019-04-26T06:51:24.943Z,1.40
2019-04-26T06:54:16.331Z,1.27
2019-04-26T06:57:18.831Z,1.70
2019-04-26T07:00:26.671Z,1.20
2019-04-26T07:03:41.367Z,1.55
2019-04-26T07:06:34.330Z,1.17
2019-04-26T07:09:11.754Z,1.20
2019-04-26T07:12:32.379Z,1.50
2019-04-26T07:18:50.285Z,1.05
2019-04-26T07:22:19.544Z,1.10
2019-04-26T07:25:53.225Z,0.95
2019-04-26T07:28:51.051Z,1.12
2019-04-26T07:31:58.732Z,1.85
2019-04-26T07:38:19.432Z,1.00
2019-04-26T07:41:21.569Z,0.97
2019-04-26T07:44:30.994Z,0.90
2019-04-26T07:47:43.981Z,0.90
2019-04-26T07:51:14.126Z,1.20
2019-04-26T07:54:46.552Z,1.13
2019-04-26T07:57:43.776Z,2.17
2019-04-26T08:00:44.923Z,0.82
2019-04-26T08:03:30.297Z,1.00
2019-04-26T08:06:27.141Z,1.87
2019-04-26T08:09:25.920Z,0.95
2019-04-26T08:11:58.301Z,1.15
2019-04-26T08:15:00.085Z,1.15
2019-04-26T08:17:44.440Z,1.10
2019-04-26T08:20:41.717Z,1.07
2019-04-26T08:23:38.530Z,1.90
2019-04-26T08:26:07.603Z,1.47
2019-04-26T08:28:44.611Z,2.02
2019-04-26T08:31:24.418Z,1.90
2019-04-26T08:34:02.142Z,1.50
2019-04-26T08:36:39.458Z,1.57
2019-04-26T08:39:32.390Z,1.37
2019-04-26T08:42:04.340Z,1.60
2019-04-26T08:44:42.599Z,1.30
2019-04-26T08:47:26.554Z,1.27
2019-04-26T08:52:40.963Z,2.10
2019-04-26T08:55:16.041Z,1.90
2019-04-26T08:57:52.482Z,1.87
2019-04-26T09:00:29.631Z,1.85
2019-04-26T09:03:18.303Z,1.90
2019-04-26T09:06:04.621Z,2.00
2019-04-26T09:08:43.588Z,1.25
2019-04-26T09:11:26.035Z,1.30
2019-04-26T09:19:30.451Z,1.10
2019-04-26T09:22:13.641Z,1.17
2019-04-26T09:24:59.298Z,1.32
2019-04-26T09:27:45.295Z,1.55
2019-04-26T09:30:19.861Z,1.53
2019-04-26T09:32:54.329Z,1.17
2019-04-26T09:35:26.868Z,0.90
2019-04-26T09:37:59.454Z,0.90
2019-04-26T09:40:32.297Z,1.00
2019-04-26T09:43:10.487Z,0.80
2019-04-26T09:45:49.503Z,0.88
2019-04-26T09:48:23.861Z,0.90
2019-04-26T09:50:58.302Z,0.80
2019-04-26T09:53:30.329Z,1.72
2019-04-26T09:56:02.940Z,0.70
2019-04-26T09:58:35.369Z,1.42
2019-04-26T10:01:08.479Z,1.95
2019-04-26T10:03:41.049Z,1.35
2019-04-26T10:06:13.681Z,1.10
2019-04-26T10:08:47.064Z,0.67
2019-04-26T10:11:22.619Z,1.05
2019-04-26T10:16:37.632Z,1.72
2019-04-26T10:19:11.707Z,0.70
2019-04-26T10:24:16.904Z,1.12
2019-04-26T10:26:49.487Z,1.30
2019-04-26T10:29:25.721Z,1.22
2019-04-26T10:31:59.853Z,1.40
2019-04-26T10:34:32.050Z,1.00
2019-04-26T10:37:06.065Z,1.00
2019-04-26T10:39:41.597Z,0.92
2019-04-26T10:42:14.361Z,1.07
2019-04-26T10:44:47.218Z,1.07
2019-04-26T10:47:19.999Z,0.82
2019-04-26T10:49:54.339Z,1.60
2019-04-26T10:52:49.678Z,1.30
2019-04-26T10:55:20.444Z,1.00
2019-04-26T10:57:53.530Z,1.45
2019-04-26T11:00:28.528Z,1.35
2019-04-26T11:04:09.551Z,1.02
2019-04-26T11:06:42.370Z,1.20
2019-04-26T11:09:15.299Z,1.20
2019-04-26T11:11:48.299Z,1.80
2019-04-26T11:14:22.612Z,1.52
2019-04-26T11:16:56.296Z,1.47
2019-04-26T11:19:31.946Z,1.60
2019-04-26T11:22:03.305Z,2.50
2019-04-26T11:24:35.792Z,7.67
2019-04-26T11:27:09.802Z,1.52
2019-04-26T11:29:53.260Z,1.25
2019-04-26T11:32:17.694Z,1.10
2019-04-26T11:34:54.552Z,1.20
2019-04-26T11:37:25.641Z,0.80
2019-04-26T11:39:58.320Z,1.32
2019-04-26T11:42:31.087Z,1.17
2019-04-26T11:45:06.331Z,1.25
2019-04-26T11:47:54.298Z,1.24
2019-04-26T11:50:16.113Z,1.02
2019-04-26T11:52:50.300Z,1.00
2019-04-26T11:55:25.445Z,1.05
2019-04-26T11:57:57.674Z,8.35
2019-04-26T12:00:35.310Z,1.40
2019-04-26T12:03:08.279Z,1.50
2019-04-26T12:05:57.680Z,1.47
2019-04-26T12:08:32.049Z,1.52
2019-04-26T12:11:17.574Z,2.05
2019-04-26T12:13:40.769Z,1.50
2019-04-26T12:16:14.563Z,1.00
2019-04-26T12:18:47.883Z,1.10
2019-04-26T12:21:20.582Z,1.40
2019-04-26T12:23:55.449Z,1.25
2019-04-26T12:26:27.769Z,0.70
2019-04-26T12:29:01.728Z,0.80
2019-04-26T12:31:34.357Z,1.00
2019-04-26T12:34:06.829Z,1.10
2019-04-26T12:36:41.455Z,0.70
2019-04-26T12:39:14.452Z,0.60
2019-04-26T12:44:19.297Z,1.07
2019-04-26T12:46:53.491Z,0.70
2019-04-26T12:49:26.045Z,0.70
2019-04-26T12:51:58.632Z,0.70
2019-04-26T12:57:05.873Z,0.70
2019-04-26T13:02:16.707Z,0.70
2019-04-26T13:04:47.294Z,0.80
2019-04-26T13:07:23.784Z,0.60
2019-04-26T13:12:47.955Z,1.08
2019-04-26T13:15:53.323Z,1.10
2019-04-26T13:18:26.088Z,0.85
2019-04-26T13:22:54.178Z,1.65
2019-04-26T13:25:34.446Z,1.02
2019-04-26T13:28:01.334Z,1.10
2019-04-26T13:30:33.859Z,1.17
2019-04-26T13:33:06.522Z,0.90
2019-04-26T13:35:41.294Z,1.00
2019-04-26T13:38:13.675Z,0.88
2019-04-26T13:40:46.455Z,0.90
2019-04-26T13:43:22.671Z,1.15
2019-04-26T13:46:11.295Z,0.73
2019-04-26T13:48:52.694Z,1.00
2019-04-26T13:51:29.722Z,0.60
2019-04-26T13:54:02.335Z,1.00
2019-04-26T13:56:35.995Z,1.25
2019-04-26T13:59:09.281Z,1.10
2019-04-26T14:01:41.614Z,1.30
2019-04-26T14:04:14.359Z,0.88
2019-04-26T14:06:47.051Z,0.90
2019-04-26T14:09:19.618Z,1.12
2019-04-26T14:11:52.260Z,1.07
2019-04-26T14:14:24.703Z,1.15
2019-04-26T14:16:58.795Z,1.07
2019-04-26T14:19:31.653Z,1.40
2019-04-26T14:22:07.115Z,0.80
2019-04-26T14:24:46.360Z,0.88
2019-04-26T14:27:23.521Z,0.80
2019-04-26T14:29:55.954Z,0.80
2019-04-26T14:32:28.348Z,1.00
2019-04-26T14:35:01.496Z,0.90
2019-04-26T14:37:34.323Z,0.93
2019-04-26T14:40:17.152Z,1.20
2019-04-26T14:42:47.081Z,1.17
2019-04-26T14:45:23.653Z,1.20
2019-04-26T14:47:51.865Z,1.85
2019-04-26T14:50:28.208Z,1.20
2019-04-26T14:53:02.368Z,0.90
2019-04-26T14:55:33.506Z,0.72
2019-04-26T14:58:06.282Z,1.00
2019-04-26T15:00:43.837Z,1.77
2019-04-26T15:03:24.305Z,1.28
2019-04-26T15:06:02.905Z,13.43
2019-04-26T15:08:36.691Z,5.15
2019-04-26T15:11:09.304Z,1.75
2019-04-26T15:16:16.300Z,0.86
2019-04-26T15:21:22.799Z,1.02
2019-04-26T15:23:59.374Z,0.80
2019-04-26T15:29:04.469Z,1.37
2019-04-26T15:31:37.379Z,5.62
2019-04-26T15:34:09.879Z,0.90
2019-04-26T15:36:43.426Z,0.70
2019-04-26T15:39:21.305Z,1.28
2019-04-26T15:41:54.654Z,1.45
2019-04-26T15:44:28.392Z,1.50
2019-04-26T15:50:28.614Z,1.40
2019-04-26T15:53:02.583Z,0.60
2019-04-26T15:55:49.315Z,0.70
2019-04-26T15:58:24.583Z,0.88
2019-04-26T16:00:57.813Z,0.65
2019-04-26T16:03:30.767Z,1.25
2019-04-26T16:06:07.076Z,21.95
2019-04-26T16:08:42.594Z,1.57
2019-04-26T16:11:12.858Z,1.60
2019-04-26T16:13:54.120Z,1.70
2019-04-26T16:16:20.673Z,1.30
2019-04-26T16:18:57.189Z,1.65
2019-04-26T16:21:29.864Z,1.22
2019-04-26T16:24:02.865Z,1.70
2019-04-26T16:26:36.466Z,1.00
2019-04-26T16:29:08.754Z,0.98
2019-04-26T16:31:47.298Z,1.18
2019-04-26T16:36:55.995Z,1.90
2019-04-26T16:39:38.274Z,1.32
2019-04-26T16:42:07.345Z,1.70
2019-04-26T16:44:38.796Z,1.30
2019-04-26T16:47:13.289Z,1.28
2019-04-26T16:49:46.724Z,1.20
2019-04-26T16:52:19.439Z,1.50
2019-04-26T16:54:53.057Z,1.87
2019-04-26T16:57:26.028Z,1.67
2019-04-26T17:00:00.211Z,1.50
2019-04-26T17:02:36.975Z,1.47
2019-04-26T17:05:28.678Z,2.17
2019-04-26T17:07:47.330Z,1.85
2019-04-26T17:10:20.825Z,2.10
2019-04-26T17:12:54.455Z,2.12
2019-04-26T17:20:32.196Z,2.05
2019-04-26T17:23:04.699Z,1.80
2019-04-26T17:25:55.241Z,1.50
2019-04-26T17:30:59.507Z,1.97
2019-04-26T17:33:32.722Z,1.77
2019-04-26T17:36:05.543Z,2.10
2019-04-26T17:38:39.171Z,1.95
2019-04-26T17:41:14.018Z,2.40
2019-04-26T17:43:49.096Z,3.10
2019-04-26T17:46:21.693Z,3.25
2019-04-26T17:48:55.583Z,2.87
2019-04-26T17:51:41.866Z,3.02
2019-04-26T17:54:26.609Z,2.85
2019-04-26T17:56:54.659Z,2.57
2019-04-26T17:59:33.590Z,3.45
2019-04-26T18:02:01.517Z,8.98
2019-04-26T18:04:37.412Z,5.35
2019-04-26T18:07:36.104Z,5.80
2019-04-26T18:09:46.637Z,46.48
2019-04-26T18:12:18.382Z,41.24
2019-04-26T18:14:51.139Z,23.87
2019-04-26T18:17:25.330Z,16.95
2019-04-26T18:20:15.524Z,12.15
2019-04-26T18:22:48.068Z,5.46
2019-04-26T18:25:21.074Z,9.50
2019-04-26T18:27:54.037Z,7.00
2019-04-26T18:30:27.646Z,5.97
2019-04-26T18:33:00.356Z,6.72
2019-04-26T18:35:34.312Z,5.10
2019-04-26T18:38:08.624Z,5.85
2019-04-26T18:40:58.435Z,5.75
2019-04-26T18:43:23.562Z,4.15
2019-04-26T18:45:53.271Z,4.35
2019-04-26T18:48:26.306Z,3.83
2019-04-26T18:51:00.597Z,4.03
2019-04-26T18:53:39.458Z,4.37
2019-04-26T18:56:12.643Z,3.60
2019-04-26T18:58:45.309Z,3.50
2019-04-26T19:01:19.569Z,3.50
2019-04-26T19:03:54.149Z,3.77
2019-04-26T19:06:31.564Z,3.60
2019-04-26T19:09:04.132Z,4.10
2019-04-26T19:11:37.313Z,4.40
2019-04-26T19:14:13.483Z,4.65
2019-04-26T19:16:58.703Z,4.58
2019-04-26T19:19:32.960Z,4.33
2019-04-26T19:25:01.953Z,4.33
2019-04-26T19:27:49.357Z,5.62
2019-04-26T19:30:16.735Z,4.58
2019-04-26T19:32:53.607Z,5.14
2019-04-26T19:35:29.770Z,4.93
2019-04-26T19:38:07.488Z,4.67
2019-04-26T19:40:46.569Z,4.60
2019-04-26T19:43:30.157Z,4.60
2019-04-26T19:46:17.090Z,5.25
2019-04-26T19:48:55.359Z,4.80
2019-04-26T19:51:33.370Z,3.40
2019-04-26T19:54:14.555Z,4.42
2019-04-26T19:56:51.865Z,4.87
2019-04-26T19:59:27.517Z,4.60
2019-04-26T20:02:01.560Z,3.70
2019-04-26T20:04:41.851Z,4.85
2019-04-26T20:09:52.409Z,6.90
2019-04-26T20:12:29.493Z,4.90
2019-04-26T20:15:02.303Z,4.62
2019-04-26T20:17:38.858Z,4.00
2019-04-26T20:20:20.715Z,3.85
2019-04-26T20:22:46.286Z,4.22
2019-04-26T20:25:18.975Z,3.55
2019-04-26T20:27:53.713Z,3.50
2019-04-26T20:30:33.393Z,3.47
2019-04-26T20:33:05.993Z,3.47
2019-04-26T20:35:38.418Z,3.80
2019-04-26T20:38:11.897Z,3.55
2019-04-26T20:40:47.553Z,4.30
2019-04-26T20:43:24.477Z,3.84
2019-04-26T20:46:10.494Z,3.37
2019-04-26T20:48:30.143Z,4.30
2019-04-26T20:51:06.584Z,4.35
2019-04-26T20:53:41.104Z,3.83
2019-04-26T20:56:16.666Z,3.60
2019-04-26T20:58:47.210Z,3.45
2019-04-26T21:01:20.029Z,3.00
2019-04-26T21:03:55.491Z,2.52
2019-04-26T21:06:29.240Z,3.00
2019-04-26T21:09:08.636Z,3.05
2019-04-26T21:11:42.470Z,3.17
2019-04-26T21:14:16.055Z,2.85
2019-04-26T21:16:49.405Z,2.77
2019-04-26T21:19:22.766Z,2.93
2019-04-26T21:21:55.322Z,2.80
2019-04-26T21:24:29.267Z,2.83
2019-04-26T21:27:09.415Z,2.40
2019-04-26T21:30:01.237Z,4.00
2019-04-26T21:32:39.251Z,3.75
2019-04-26T21:35:13.778Z,3.30
2019-04-26T21:38:06.386Z,3.55
2019-04-26T21:40:40.300Z,3.37
2019-04-26T21:43:12.543Z,3.95
2019-04-26T21:45:45.685Z,3.90
2019-04-26T21:50:51.309Z,4.12
2019-04-26T21:53:24.262Z,3.52
2019-04-26T21:55:57.295Z,4.28
2019-04-26T21:58:29.773Z,3.30
2019-04-26T22:01:11.087Z,2.98
2019-04-26T22:03:53.540Z,3.40
2019-04-26T22:06:25.125Z,3.28
2019-04-26T22:08:59.296Z,5.97
2019-04-26T22:11:30.611Z,4.70
2019-04-26T22:14:08.078Z,3.73
2019-04-26T22:19:15.580Z,3.64
2019-04-26T22:21:54.409Z,3.50
2019-04-26T22:24:28.932Z,3.37
2019-04-26T22:27:01.447Z,3.60
2019-04-26T22:29:33.776Z,3.27
2019-04-26T22:32:06.495Z,3.30
2019-04-26T22:34:41.428Z,3.40
2019-04-26T22:37:16.168Z,3.35
2019-04-26T22:39:48.319Z,3.50
2019-04-26T22:42:23.483Z,3.04
2019-04-26T22:44:55.899Z,3.40
2019-04-26T22:47:33.982Z,3.40
2019-04-26T22:50:05.995Z,2.70
2019-04-26T22:52:40.299Z,3.52
2019-04-26T22:57:53.015Z,3.98
2019-04-26T23:00:29.456Z,3.70
2019-04-26T23:03:07.285Z,4.28
2019-04-26T23:05:43.746Z,4.12
2019-04-26T23:08:19.354Z,3.72
2019-04-26T23:13:33.852Z,4.55
2019-04-26T23:16:11.402Z,4.47
2019-04-26T23:18:57.628Z,3.72
2019-04-26T23:21:37.327Z,4.35
2019-04-26T23:24:17.535Z,3.72
2019-04-26T23:29:19.875Z,3.80
2019-04-26T23:31:55.244Z,4.40
2019-04-26T23:34:27.078Z,4.12
2019-04-26T23:36:59.885Z,3.80
2019-04-26T23:39:32.847Z,3.30
2019-04-26T23:42:06.304Z,4.20
2019-04-26T23:44:41.177Z,4.60
2019-04-26T23:50:04.319Z,5.05
2019-04-26T23:52:38.270Z,4.05
2019-04-26T23:55:10.953Z,4.25
2019-04-26T23:57:43.534Z,4.00
